Latest Weather Observations for Merimbula

IDN60801

Issued at 1:05 pm EDT Saturday 1 November 2014 (issued every 30 minutes, with the page automatically refreshed every 10 minutes)

About weather observations | Map of weather stations | Latest weather observations for NSW | Other Formats
Station Details ID: 069147 Name: MERIMBULA AIRPORT AWS Lat: -36.91 Lon: 149.90 Height: 1.5 m
Data from the previous 72 hours. | See also: Recent months at Merimbula
Date/Time
EDT
Temp
°C
App
Temp
°C
Dew
Point
Rel
Hum
%
Delta-T
°C
Wind Press
QNH
hPa
Press
MSL
hPa
Rain
since 9 am
mm
Dir
 
Spd
km/h
Gust
km/h
Spd
kts
Gust
kts
01/01:00pm 18.1 17.5 13.6 75 2.6 SE 9 13 5 7 998.9 998.9 0.0
01/12:30pm 18.3 16.1 13.2 72 2.9 SE 17 22 9 12 999.0 999.0 0.0
01/12:00pm 18.9 16.3 13.3 70 3.2 SE 19 28 10 15 998.6 998.6 0.0
01/11:30am 18.9 16.5 12.6 67 3.5 SE 17 28 9 15 998.4 998.4 0.0
01/11:00am 19.2 16.2 12.7 66 3.7 SE 20 33 11 18 998.5 998.5 0.0
01/10:30am 19.8 16.6 13.0 65 3.8 ESE 22 32 12 17 998.0 998.0 0.0
01/10:00am 21.3 17.6 14.0 63 4.3 ESE 26 39 14 21 998.6 998.6 0.0
01/09:30am 21.8 19.1 14.7 64 4.2 ESE 22 32 12 17 998.6 998.6 0.0
01/09:00am 21.4 18.6 13.1 59 4.8 SE 20 35 11 19 998.6 998.6 0.0
01/08:42am 22.5 17.6 11.3 49 6.2 ESE 28 35 15 19 998.5 998.5 0.0
01/08:30am 27.7 22.9 11.7 37 9.2 NW 28 43 15 23 998.4 998.4 0.0
01/08:03am 27.3 21.4 11.3 37 9.1 NW 33 54 18 29 996.5 996.5 0.0
01/08:00am 27.0 21.2 11.5 38 8.9 NW 33 44 18 24 996.4 996.4 0.0
01/07:42am 27.3 21.2 11.7 37 8.9 NW 35 54 19 29 996.3 996.3 0.0
01/07:30am 26.3 19.8 11.6 40 8.4 NW 37 54 20 29 996.2 996.2 0.0
01/07:26am 26.4 20.1 10.9 38 8.8 NW 35 54 19 29 996.1 996.1 0.0
01/07:00am 24.3 19.4 11.3 44 7.4 NNW 28 37 15 20 996.5 996.5 0.0
01/06:30am 19.9 16.3 11.7 59 4.5 NNW 22 33 12 18 997.0 997.0 0.0
01/06:00am 15.4 15.2 14.6 95 0.5 NE 9 19 5 10 997.2 997.2 0.0
01/05:30am 13.6 14.5 13.0 96 0.3 CALM 0 0 0 0 997.7 997.7 0.0
01/05:19am 13.7 14.7 13.1 96 0.3 CALM 0 0 0 0 997.6 997.6 0.0
01/05:05am 13.3 14.1 12.5 95 0.4 CALM 0 0 0 0 997.6 997.6 0.0
01/05:00am 13.5 14.3 12.7 95 0.4 CALM 0 0 0 0 997.6 997.6 0.0
01/04:30am 14.1 15.2 13.5 96 0.3 CALM 0 0 0 0 997.8 997.8 0.0
01/04:22am 14.2 15.3 13.6 96 0.3 CALM 0 0 0 0 997.9 997.9 0.0
01/04:00am 13.8 14.7 13.0 95 0.4 CALM 0 0 0 0 998.0 998.0 0.0
01/03:41am 14.3 15.4 13.5 95 0.4 CALM 0 0 0 0 998.7 998.7 0.0
01/03:30am 15.0 16.3 14.2 95 0.5 CALM 0 0 0 0 998.5 998.5 0.0
01/03:00am 15.3 16.8 14.7 96 0.3 CALM 0 0 0 0 999.0 999.0 0.0
01/02:44am 15.3 16.7 14.5 95 0.5 CALM 0 0 0 0 999.1 999.1 0.0
01/02:30am 15.3 16.7 14.5 95 0.5 CALM 0 0 0 0 999.4 999.4 0.0
01/02:00am 15.2 16.6 14.4 95 0.5 CALM 0 0 0 0 1000.2 1000.2 0.0
01/01:53am 15.1 16.5 14.3 95 0.5 CALM 0 0 0 0 1000.3 1000.3 0.0
01/01:46am 15.4 16.9 14.6 95 0.5 CALM 0 0 0 0 1000.5 1000.5 0.0
01/01:30am 15.7 17.4 15.1 96 0.3 CALM 0 0 0 0 1000.8 1000.8 0.0
01/01:17am 15.7 17.4 15.1 96 0.3 CALM 0 0 0 0 1001.0 1001.0 0.0
01/01:06am 15.7 17.4 15.1 96 0.3 CALM 0 0 0 0 1001.2 1001.2 0.0
01/01:00am 15.1 16.5 14.3 95 0.5 NNE 0 0 0 0 1001.4 1001.4 0.0
01/12:30am 15.3 16.7 14.5 95 0.5 CALM 0 0 0 0 1001.9 1001.9 0.0
01/12:00am 15.8 16.3 15.0 95 0.5 SSW 6 11 3 6 1002.5 1002.5 0.0
 
Date/Time
EDT
Temp
°C
App
Temp
°C
Dew
Point
Rel
Hum
%
Delta-T
°C
Wind Press
QNH
hPa
Press
MSL
hPa
Rain
since 9 am
mm
Dir
 
Spd
km/h
Gust
km/h
Spd
kts
Gust
kts
31/11:30pm 16.1 17.1 15.3 95 0.5 NW 4 13 2 7 1002.9 1002.9 0.0
31/11:00pm 16.0 17.6 15.0 94 0.6 CALM 0 0 0 0 1003.3 1003.3 0.0
31/10:30pm 15.6 17.1 14.6 94 0.6 CALM 0 0 0 0 1003.9 1003.9 0.0
31/10:00pm 16.3 18.0 15.2 93 0.6 CALM 0 0 0 0 1004.1 1004.1 0.0
31/09:30pm 16.7 18.4 15.2 91 0.9 CALM 0 0 0 0 1004.4 1004.4 0.0
31/09:11pm 16.9 18.6 15.2 90 1.0 CALM 0 0 0 0 1004.8 1004.8 0.0
31/09:00pm 17.6 19.6 16.1 91 0.9 CALM 0 0 0 0 1004.8 1004.8 0.0
31/08:30pm 18.1 20.3 16.4 90 1.0 CALM 0 0 0 0 1004.9 1004.9 0.0
31/08:00pm 18.2 20.4 16.4 89 1.1 CALM 0 0 0 0 1005.1 1005.1 0.0
31/07:30pm 18.5 20.7 16.5 88 1.2 CALM 0 0 0 0 1005.2 1005.2 0.0
31/07:00pm 18.8 19.8 16.8 88 1.2 ESE 7 11 4 6 1005.2 1005.2 0.0
31/06:30pm 19.0 19.6 16.8 87 1.3 ESE 9 13 5 7 1005.1 1005.1 0.0
31/06:00pm 19.4 19.5 16.6 84 1.7 ESE 11 13 6 7 1005.1 1005.1 0.0
31/05:30pm 20.2 20.4 16.8 81 2.1 ESE 11 15 6 8 1005.3 1005.3 0.0
31/05:00pm 20.9 20.7 16.7 77 2.6 E 13 19 7 10 1005.4 1005.4 0.0
31/04:30pm 21.4 21.2 16.8 75 2.8 NE 13 20 7 11 1005.5 1005.5 0.0
31/04:00pm 21.3 20.7 16.7 75 2.8 NE 15 20 8 11 1005.8 1005.8 0.0
31/03:30pm 21.4 20.9 16.8 75 2.8 NE 15 22 8 12 1006.3 1006.3 0.0
31/03:00pm 20.6 20.1 15.8 74 2.9 NE 13 22 7 12 1006.7 1006.7 0.0
31/02:30pm 20.6 19.3 15.8 74 2.9 NE 17 26 9 14 1007.0 1007.0 0.0
31/02:00pm 20.3 18.0 15.7 75 2.7 NE 22 30 12 16 1007.4 1007.4 0.0
31/01:30pm 21.0 18.4 16.0 73 3.0 ENE 24 33 13 18 1007.7 1007.7 0.0
31/01:00pm 21.8 20.0 16.1 70 3.4 ENE 20 28 11 15 1008.0 1008.0 0.0
31/12:30pm 21.1 19.1 15.4 70 3.4 NE 20 30 11 16 1008.4 1008.4 0.0
31/12:00pm 21.0 18.2 15.3 70 3.4 NE 24 35 13 19 1009.1 1009.1 0.0
31/11:30am 21.1 18.4 15.6 71 3.3 NE 24 35 13 19 1009.7 1009.7 0.0
31/11:00am 20.9 18.7 14.8 68 3.6 NE 20 32 11 17 1010.3 1010.3 0.0
31/10:30am 21.0 19.4 15.1 69 3.5 NE 17 28 9 15 1011.0 1011.0 0.0
31/10:00am 20.9 19.8 14.3 66 3.8 N 13 26 7 14 1011.5 1011.5 0.0
31/09:30am 20.4 20.3 13.8 66 3.8 NNW 7 17 4 9 1011.9 1011.9 0.0
31/09:00am 19.7 18.0 13.6 68 3.5 NW 15 20 8 11 1012.4 1012.4 0.0
31/08:30am 17.8 16.6 12.7 72 2.8 NW 11 15 6 8 1012.6 1012.6 0.0
31/08:00am 17.2 15.8 13.3 78 2.2 NW 13 19 7 10 1012.8 1012.8 0.0
31/07:30am 15.9 17.0 13.4 85 1.4 CALM 0 0 0 0 1012.7 1012.7 0.0
31/07:00am 15.2 16.3 13.4 89 1.0 CALM 0 0 0 0 1012.7 1012.7 0.0
31/06:30am 14.6 15.5 13.0 90 0.9 CALM 0 0 0 0 1012.7 1012.7 0.0
31/06:00am 14.3 15.1 12.7 90 0.9 CALM 0 0 0 0 1012.6 1012.6 0.0
31/05:30am 14.3 15.1 12.7 90 0.9 CALM 0 0 0 0 1012.6 1012.6 0.0
31/05:00am 14.1 14.9 12.7 91 0.8 CALM 0 0 0 0 1012.7 1012.7 0.0
31/04:30am 13.9 14.7 12.5 91 0.8 CALM 0 0 0 0 1012.7 1012.7 0.0
31/04:00am 13.7 14.4 12.1 90 0.9 CALM 0 0 0 0 1013.0 1013.0 0.0
31/03:30am 13.9 14.6 12.3 90 0.9 CALM 0 0 0 0 1013.2 1013.2 0.0
31/03:00am 13.7 14.3 11.9 89 1.0 CALM 0 0 0 0 1013.2 1013.2 0.0
31/02:30am 14.0 14.8 12.6 91 0.8 CALM 0 0 0 0 1013.5 1013.5 0.0
31/02:00am 14.1 14.9 12.5 90 0.9 CALM 0 0 0 0 1013.8 1013.8 0.0
31/01:30am 14.0 14.8 12.6 91 0.8 CALM 0 0 0 0 1014.2 1014.2 0.0
31/01:00am 13.7 14.4 12.3 91 0.8 CALM 0 0 0 0 1014.6 1014.6 0.0
31/12:30am 13.6 14.3 12.3 92 0.7 CALM 0 0 0 0 1014.8 1014.8 0.0
31/12:00am 13.4 14.1 12.1 92 0.7 CALM 0 0 0 0 1015.0 1015.0 0.0
 
Date/Time
EDT
Temp
°C
App
Temp
°C
Dew
Point
Rel
Hum
%
Delta-T
°C
Wind Press
QNH
hPa
Press
MSL
hPa
Rain
since 9 am
mm
Dir
 
Spd
km/h
Gust
km/h
Spd
kts
Gust
kts
30/11:30pm 12.9 13.4 11.6 92 0.7 CALM 0 0 0 0 1015.0 1015.0 0.0
30/11:00pm 12.4 12.6 10.5 88 1.0 CALM 0 0 0 0 1015.2 1015.2 0.0
30/10:30pm 13.3 12.5 11.2 87 1.1 NW 6 7 3 4 1015.5 1015.5 0.0
30/10:00pm 13.6 14.0 11.3 86 1.2 CALM 0 0 0 0 1015.5 1015.5 0.0
30/09:30pm 14.5 15.2 12.2 86 1.2 CALM 0 0 0 0 1015.3 1015.3 0.0
30/09:00pm 14.2 14.5 10.8 80 1.8 CALM 0 0 0 0 1015.2 1015.2 0.0
30/08:30pm 15.5 14.8 11.5 77 2.2 SSE 6 13 3 7 1014.9 1014.9 0.0
30/08:00pm 15.8 14.0 11.0 73 2.6 SSE 11 19 6 10 1014.6 1014.6 0.0
30/07:30pm 16.2 13.6 10.7 70 2.9 SE 15 24 8 13 1014.1 1014.1 0.0
30/07:00pm 16.6 13.4 11.1 70 3.0 SE 19 24 10 13 1013.7 1013.7 0.0
30/06:30pm 17.3 14.9 12.8 75 2.5 SE 17 32 9 17 1013.3 1013.3 0.0
30/06:00pm 17.8 14.8 12.7 72 2.8 SE 20 28 11 15 1012.7 1012.7 0.0
30/05:30pm 18.2 15.6 13.1 72 2.9 SE 19 26 10 14 1012.4 1012.4 0.0
30/05:00pm 18.4 15.7 12.8 70 3.1 SE 19 28 10 15 1012.1 1012.1 0.0
30/04:30pm 19.1 17.0 13.5 70 3.2 SE 17 26 9 14 1012.1 1012.1 0.0
30/04:00pm 20.0 18.4 13.9 68 3.5 SE 15 20 8 11 1011.9 1011.9 0.0
30/03:30pm 19.9 18.0 13.1 65 3.9 ESE 15 22 8 12 1011.9 1011.9 0.0
30/03:00pm 20.4 18.9 14.3 68 3.5 ESE 15 20 8 11 1012.1 1012.1 0.0
30/02:30pm 20.1 18.7 14.5 70 3.3 ESE 15 22 8 12 1012.3 1012.3 0.0
30/02:00pm 19.6 17.3 14.0 70 3.2 SE 19 24 10 13 1012.4 1012.4 0.0
30/01:30pm 20.2 18.3 14.3 69 3.4 ESE 17 24 9 13 1012.5 1012.5 0.0
30/01:00pm 19.6 18.1 14.2 71 3.1 ESE 15 22 8 12 1012.6 1012.6 0.0
30/12:30pm 19.8 18.6 14.0 69 3.3 E 13 20 7 11 1012.8 1012.8 0.0
30/12:00pm 20.0 18.6 14.6 71 3.1 ESE 15 22 8 12 1013.0 1013.0 0.0
30/11:30am 19.2 17.7 13.2 68 3.4 ESE 13 20 7 11 1013.3 1013.3 0.0
30/11:00am 18.8 17.4 13.4 71 3.1 ESE 13 19 7 10 1013.7 1013.7 0.0
30/10:30am 17.9 16.2 12.4 70 3.0 ESE 13 19 7 10 1013.9 1013.9 0.0
30/10:00am 18.1 16.7 12.1 68 3.3 ESE 11 15 6 8 1013.8 1013.8 0.0
30/09:30am 17.7 16.4 12.4 71 2.9 ESE 11 17 6 9 1013.9 1013.9 0.0
30/09:00am 17.5 17.8 12.2 71 2.9 N 2 9 1 5 1014.2 1014.2 0.0
30/08:30am 14.8 15.4 11.9 83 1.6 CALM 0 0 0 0 1014.1 1014.1 0.0
30/08:00am 13.4 13.9 11.6 89 1.0 CALM 0 0 0 0 1014.2 1014.2 0.0
30/07:30am 13.2 13.9 12.3 94 0.5 CALM 0 0 0 0 1014.0 1014.0 0.0
30/07:00am 12.2 12.6 11.3 94 0.5 CALM 0 0 0 0 1014.0 1014.0 0.0
30/06:30am 11.7 10.6 10.8 94 0.5 WNW 7 9 4 5 1014.1 1014.1 0.0
30/06:00am 11.2 10.6 10.3 94 0.5 WSW 4 9 2 5 1013.9 1013.9 0.0
30/05:30am 11.1 10.8 10.0 93 0.6 W 2 11 1 6 1014.0 1014.0 0.0
30/05:00am 11.0 11.0 9.8 92 0.6 CALM 0 0 0 0 1014.0 1014.0 0.0
30/04:30am 11.3 11.3 9.9 91 0.7 CALM 0 0 0 0 1014.1 1014.1 0.0
30/04:00am 12.0 12.2 10.6 91 0.7 CALM 0 0 0 0 1014.3 1014.3 0.0
30/03:30am 11.5 11.4 9.4 87 1.1 CALM 0 0 0 0 1014.6 1014.6 0.0
30/03:00am 12.8 13.0 10.5 86 1.2 CALM 0 0 0 0 1014.8 1014.8 0.0
30/02:30am 13.3 13.5 10.5 83 1.5 CALM 0 0 0 0 1015.0 1015.0 0.0
30/02:00am 14.5 15.0 11.5 82 1.6 CALM 0 0 0 0 1015.2 1015.2 0.0
30/01:30am 14.9 15.4 11.5 80 1.8 CALM 0 0 0 0 1015.5 1015.5 0.0
30/01:00am 15.2 15.8 11.8 80 1.8 CALM 0 0 0 0 1015.8 1015.8 0.0
30/12:30am 15.4 16.0 12.0 80 1.8 CALM 0 0 0 0 1016.0 1016.0 0.0
30/12:00am 15.6 16.2 12.0 79 2.0 CALM 0 0 0 0 1016.2 1016.2 0.0
 
Date/Time
EDT
Temp
°C
App
Temp
°C
Dew
Point
Rel
Hum
%
Delta-T
°C
Wind Press
QNH
hPa
Press
MSL
hPa
Rain
since 9 am
mm
Dir
 
Spd
km/h
Gust
km/h
Spd
kts
Gust
kts
29/11:30pm 15.7 16.4 12.1 79 2.0 CALM 0 0 0 0 1016.3 1016.3 0.0
29/11:00pm 15.9 16.4 11.7 76 2.3 CALM 0 0 0 0 1016.5 1016.5 0.0
29/10:30pm 16.1 16.6 11.5 74 2.5 CALM 0 0 0 0 1016.7 1016.7 0.0
29/10:00pm 16.4 16.4 11.3 72 2.7 NNW 2 9 1 5 1016.7 1016.7 0.0
29/09:30pm 16.4 15.9 10.9 70 2.9 N 4 11 2 6 1016.8 1016.8 0.0
29/09:00pm 16.3 15.2 10.6 69 3.0 ENE 7 11 4 6 1016.7 1016.7 0.0
29/08:30pm 16.2 15.1 10.5 69 3.0 ENE 7 13 4 7 1016.5 1016.5 0.0
29/08:00pm 15.8 15.2 10.3 70 2.9 ENE 4 9 2 5 1016.3 1016.3 0.0
29/07:30pm 15.8 14.6 10.3 70 2.9 E 7 13 4 7 1016.2 1016.2 0.0
29/07:00pm 16.0 14.4 10.1 68 3.1 ESE 9 13 5 7 1015.9 1015.9 0.0
29/06:30pm 16.3 14.6 9.9 66 3.4 E 9 13 5 7 1015.8 1015.8 0.0
29/06:00pm 17.1 15.4 9.8 62 3.8 E 9 17 5 9 1015.8 1015.8 0.0
29/05:30pm 17.4 15.3 9.6 60 4.1 E 11 17 6 9 1015.7 1015.7 0.0
29/05:00pm 17.5 14.9 9.4 59 4.2 ESE 13 19 7 10 1015.5 1015.5 0.0
29/04:30pm 18.0 15.4 9.4 57 4.5 E 13 19 7 10 1015.6 1015.6 0.0
29/04:00pm 18.5 16.0 9.8 57 4.6 E 13 20 7 11 1015.5 1015.5 0.0
29/03:30pm 18.4 15.5 9.7 57 4.6 E 15 22 8 12 1015.5 1015.5 0.0
29/03:00pm 18.6 15.5 8.8 53 5.1 E 15 22 8 12 1015.7 1015.7 0.0
29/02:30pm 18.9 15.9 9.1 53 5.1 E 15 24 8 13 1015.9 1015.9 0.0
29/02:00pm 18.3 14.6 8.0 51 5.3 E 17 22 9 12 1016.1 1016.1 0.0
29/01:30pm 19.1 16.2 9.6 54 5.0 E 15 24 8 13 1016.3 1016.3 0.0

Other Formats:

Comma delimited format used in spreadsheet applications
http://www.bom.gov.au/fwo/IDN60801/IDN60801.95929.axf

JavaScript Object Notation format (JSON) in row-major order
http://www.bom.gov.au/fwo/IDN60801/IDN60801.95929.json